x

Santa Monica Basin - 33nm Wsw Of Santa Monica, Ca (46025) Wave Buoy

4:50 - Fri 1st Aug 2014 All times are PDT. -7 hours from GMT.

  • Sig Wave height 2.3ft
  • Swell Direction
  • Peak Period 12s
  • Average Period 5s
  • Wind
    9mph, 11mph gusts
  • Sea Temp 70°f
  • Aire Temp 67°f
  • Sea Pressure 1011.7mb
  • Santa Monica Basin - 33nm Wsw Of Santa Monica, Ca
  • Santa Monica Basin - 33nm Wsw Of Santa Monica, Ca

More Historic Weather Station data

Upgrade to MSW Pro to gain access to the past 30 days of data for over 8000 Wavebouys and Weather Stations around the globe.

Join Pro

Comparision Forecast

View Surf forecast
   
vie 08/01 4:50 2.5ft 12s 5s 9 11 mph 1011.7mb 70f 67f
3:50 2.5ft 12s 5s 11
mph
1012mb 71f 67f
2:50 2.5ft 5s 5s 9 11 mph 1012.4mb 71f 67f
1:50 2.5ft 6s 6s 9 11 mph 1012.6mb 71f 67f
12:50 2.5ft 11s 5s 7
mph
1013mb 72f 67f
11:50 2.5ft 6s 5s 4
mph
1013.4mb 71f 67f
10:50 2.5ft 5s 5s 4
mph
1013.5mb 71f 67f
9:50 3ft 6s 6s 4 7 mph 1013.4mb 71f 67f
8:50 3ft 6s 5s 4 9 mph 1013.2mb 71f 66f
7:50 3ft 6s 5s 4 9 mph 1012.8mb 70f 66f
6:50 3ft 6s 5s 4 7 mph 1012.6mb 70f 66f
5:50 3ft 7s 5s 7 9 mph 1012.3mb 69f 65f
4:50 3.5ft 6s 5s 4 9 mph 1012.1mb 68f 66f
3:50 3.5ft 7s 6s 2 4 mph 1012mb 68f 66f
2:50 3.5ft 7s 5s 4 7 mph 1012.2mb 68f 65f
1:50 4ft 6s 5s 7
mph
1012.5mb 68f 66f
12:50 3.5ft 6s 5s 4 7 mph 1012.6mb 68f 65f
jue 07/31 11:50 4.5ft 7s 5s 2 4 mph 1012.5mb 68f 65f
10:50 4.5ft 6s 5s 7 9 mph 1012mb 68f 65f
9:50 4.5ft 6s 5s 9 11 mph 1012.1mb 68f 65f
8:50 4.5ft 6s 5s 16 20 mph 1011.3mb 68f 67f
7:50 4.5ft 6s 5s 9
mph
1010.9mb 68f 67f
6:50 4ft 6s 5s 16 18 mph 1010.6mb 68f 67f
5:50 3.5ft 6s 5s 9 11 mph 1011.1mb 69f 66f
4:50 3.5ft 6s 5s 13 18 mph 1011.4mb 69f 67f
3:50 3.5ft 6s 5s 13
mph
1011.9mb 70f 67f
2:50 3ft 6s 6s 7 9 mph 1012.3mb 70f 67f
1:50 3ft 5s 6s 9 11 mph 1012.8mb 71f 66f
12:50 3.5ft 13s 6s 4 7 mph 1013.1mb 71f 67f
11:50 3.5ft 6s 5s 7 9 mph 1013.5mb 69f 66f
10:50 4ft 6s 5s 9 11 mph 1013.7mb 69f 66f
9:50 4ft 7s 5s 7
mph
1013.7mb 68f 66f
8:50 4.5ft 6s 5s 4 7 mph 1013.8mb 68f 65f
7:50 4.5ft 6s 5s 11 16 mph 1013.3mb 67f 64f
6:50 4.5ft 7s 5s 13 18 mph 1013.1mb 67f 64f
5:50 4.5ft 6s 6s 11 16 mph 1012.8mb 67f 65f
4:50 4.5ft 7s 6s 9
mph
1012.5mb 67f 65f
3:50 4.5ft 7s 6s 7 9 mph 1012.5mb 67f 65f
2:50 4.5ft 7s 6s 7 9 mph 1012.7mb 67f 67f
1:50 4ft 7s 5s 9 11 mph 1013.1mb 67f 66f
12:50 4ft 6s 5s 7 9 mph 1013.1mb 67f 66f
mié 07/30 11:50 4.5ft 6s 5s 7 9 mph 1013.2mb 67f 66f
10:50 4.5ft 6s 5s 7 9 mph 1013.2mb 67f 67f
9:50 4.5ft 6s 5s 9
mph
1012.9mb 67f 66f
8:50 4.5ft 6s 5s 11 13 mph 1012.5mb 67f 66f
6:50 3.5ft 5s 5s 16 18 mph 1012mb 68f 67f
5:50 3.5ft 6s 6s 13 18 mph 1012.3mb 68f 67f
4:50 3.5ft 13s 6s 11 13 mph 1012.7mb 70f 70f
3:50 3.5ft 6s 6s 7
mph
1013mb 70f 69f
2:50 3ft 6s 6s 7
mph
1013.7mb 69f 68f
1:50 3.5ft 14s 6s 7
mph
1014mb 71f 69f
12:50 3ft 6s 6s 4 7 mph 1014.3mb 70f 68f
11:50 3.5ft 5s 6s 2 4 mph 1014.6mb 70f 67f
10:50 3.5ft 6s 6s 7
mph
1014.6mb 69f 66f
9:50 3.5ft 6s 6s 4 7 mph 1014.6mb 69f 67f
8:50 4.5ft 6s 6s 2 4 mph 1014.6mb 68f 66f
7:50 4.5ft 6s 6s 2 4 mph 1014.6mb 67f 66f
6:50 5ft 6s 6s 4 7 mph 1014.1mb 67f 65f
5:50 5ft 6s 6s 9
mph
1013.4mb 67f 65f
4:50 4.5ft 6s 6s 4 7 mph 1013.5mb 67f 65f
3:50 4ft 6s 6s  -  2 mph 1013.5mb 67f 66f
2:50 4ft 6s 5s 7
mph
1013.3mb 68f 66f
1:50 4ft 6s 5s  -  2 mph 1013.9mb 68f 67f
12:50 3.5ft 6s 5s 4 7 mph 1013.9mb 68f 67f
mar 07/29 11:50 3.5ft 5s 5s 2
mph
1014.1mb 68f 66f
10:50 4ft 6s 5s 2 4 mph 1014.7mb 67f 66f
9:50 3.5ft 5s 5s 4 7 mph 1014.2mb 67f 67f
8:50 3ft 5s 5s 11 13 mph 1013.9mb 67f 67f
7:50 3.5ft 5s 5s 9 11 mph 1013.9mb 67f 68f
6:50 3.5ft 14s 5s 11 16 mph 1013.4mb 68f 68f
5:50 3ft 5s 4s 16 18 mph 1013.5mb 68f 69f
4:50 2.5ft 13s 5s 16 18 mph 1013.7mb 68f 68f
3:50 2.5ft 13s 5s 9 11 mph 1014.8mb 69f 68f
2:50 2.5ft 14s 6s 9 11 mph 1015mb 69f 68f
1:50 2.5ft 13s 6s 9 11 mph 1015.5mb 69f 67f
12:50 2.5ft 14s 5s 9 11 mph 1016.1mb 68f 68f
11:50 2.5ft 13s 5s 9 11 mph 1016.4mb 68f 67f
10:50 2.5ft 14s 5s 9
mph
1017mb 68f 67f
9:50 3ft 5s 5s 7 9 mph 1017.2mb 67f 66f
8:50 3ft 13s 5s 7 9 mph 1017.1mb 67f 66f
7:50 2.5ft 13s 5s 2 4 mph 1016.9mb 67f 67f
6:50 2.5ft 13s 5s 4
mph
1016.6mb 67f 67f
5:50 2.5ft 14s 5s 2 4 mph 1016.2mb 67f 67f
4:50 2.5ft 14s 5s 4 7 mph 1015.9mb 67f 67f
3:50 2.5ft 15s 5s 4 7 mph 1016.1mb 68f 67f
2:50 2.5ft 14s 5s 7 9 mph 1016.2mb 68f 67f
1:50 3ft 14s 5s 7 9 mph 1016.1mb 68f 67f
12:50 3ft 14s 5s 13 16 mph 1015.7mb 68f 67f